sensor_id;sensor_type;location;lat;lon;timestamp;pressure;altitude;pressure_sealevel;temperature;humidity
43364;BME280;40636;52.424;-1.948;2022-11-15T00:00:54;98533.97;;;7.68;100.00
43364;BME280;40636;52.424;-1.948;2022-11-15T00:03:23;98530.13;;;7.64;100.00
43364;BME280;40636;52.424;-1.948;2022-11-15T00:05:50;98524.91;;;7.62;100.00
43364;BME280;40636;52.424;-1.948;2022-11-15T00:08:17;98517.00;;;7.61;100.00
43364;BME280;40636;52.424;-1.948;2022-11-15T00:10:58;98506.59;;;7.58;100.00
43364;BME280;40636;52.424;-1.948;2022-11-15T00:13:26;98515.88;;;7.57;100.00
43364;BME280;40636;52.424;-1.948;2022-11-15T00:15:59;98506.59;;;7.58;100.00
43364;BME280;40636;52.424;-1.948;2022-11-15T00:18:27;98500.88;;;7.59;100.00
43364;BME280;40636;52.424;-1.948;2022-11-15T00:20:55;98495.69;;;7.58;100.00
43364;BME280;40636;52.424;-1.948;2022-11-15T00:23:22;98488.31;;;7.58;100.00
43364;BME280;40636;52.424;-1.948;2022-11-15T00:25:55;98480.69;;;7.60;100.00
43364;BME280;40636;52.424;-1.948;2022-11-15T00:28:24;98469.78;;;7.66;100.00
43364;BME280;40636;52.424;-1.948;2022-11-15T00:30:51;98455.84;;;7.62;100.00
43364;BME280;40636;52.424;-1.948;2022-11-15T00:33:18;98446.59;;;7.68;100.00
43364;BME280;40636;52.424;-1.948;2022-11-15T00:35:45;98446.31;;;7.65;100.00
43364;BME280;40636;52.424;-1.948;2022-11-15T00:38:12;98435.38;;;7.65;100.00
43364;BME280;40636;52.424;-1.948;2022-11-15T00:40:38;98430.75;;;7.65;100.00
43364;BME280;40636;52.424;-1.948;2022-11-15T00:43:05;98431.03;;;7.69;100.00
43364;BME280;40636;52.424;-1.948;2022-11-15T00:45:32;98428.03;;;7.70;100.00
43364;BME280;40636;52.424;-1.948;2022-11-15T00:47:59;98423.94;;;7.73;100.00
43364;BME280;40636;52.424;-1.948;2022-11-15T00:50:26;98425.03;;;7.77;100.00
43364;BME280;40636;52.424;-1.948;2022-11-15T00:52:52;98423.66;;;7.79;100.00
43364;BME280;40636;52.424;-1.948;2022-11-15T00:55:19;98406.19;;;7.85;100.00
43364;BME280;40636;52.424;-1.948;2022-11-15T00:57:46;98401.00;;;7.84;100.00
43364;BME280;40636;52.424;-1.948;2022-11-15T01:00:14;98396.66;;;7.88;100.00
43364;BME280;40636;52.424;-1.948;2022-11-15T01:02:43;98393.91;;;7.88;100.00
43364;BME280;40636;52.424;-1.948;2022-11-15T01:05:10;98386.81;;;7.92;100.00
43364;BME280;40636;52.424;-1.948;2022-11-15T01:07:36;98381.91;;;7.94;100.00
43364;BME280;40636;52.424;-1.948;2022-11-15T01:10:04;98370.72;;;7.96;100.00
43364;BME280;40636;52.424;-1.948;2022-11-15T01:12:31;98369.34;;;7.98;100.00
43364;BME280;40636;52.424;-1.948;2022-11-15T01:14:58;98359.50;;;7.97;100.00
43364;BME280;40636;52.424;-1.948;2022-11-15T01:17:25;98359.78;;;7.96;100.00
43364;BME280;40636;52.424;-1.948;2022-11-15T01:19:52;98354.59;;;7.99;100.00
43364;BME280;40636;52.424;-1.948;2022-11-15T01:22:18;98344.75;;;8.03;100.00
43364;BME280;40636;52.424;-1.948;2022-11-15T01:24:45;98337.94;;;8.11;100.00
43364;BME280;40636;52.424;-1.948;2022-11-15T01:27:12;98339.31;;;8.08;100.00
43364;BME280;40636;52.424;-1.948;2022-11-15T01:29:38;98328.09;;;8.10;100.00
43364;BME280;40636;52.424;-1.948;2022-11-15T01:32:05;98327.28;;;8.09;100.00
43364;BME280;40636;52.424;-1.948;2022-11-15T01:34:32;98318.00;;;8.10;100.00
43364;BME280;40636;52.424;-1.948;2022-11-15T01:36:59;98306.78;;;8.07;100.00
43364;BME280;40636;52.424;-1.948;2022-11-15T01:39:25;98296.13;;;8.10;100.00
43364;BME280;40636;52.424;-1.948;2022-11-15T01:41:53;98284.38;;;8.10;100.00
43364;BME280;40636;52.424;-1.948;2022-11-15T01:44:37;98281.38;;;8.11;100.00
43364;BME280;40636;52.424;-1.948;2022-11-15T01:47:33;98269.91;;;8.14;100.00
43364;BME280;40636;52.424;-1.948;2022-11-15T01:50:06;98262.81;;;8.13;100.00
43364;BME280;40636;52.424;-1.948;2022-11-15T01:52:35;98260.06;;;8.13;100.00
43364;BME280;40636;52.424;-1.948;2022-11-15T01:55:05;98256.25;;;8.14;100.00
43364;BME280;40636;52.424;-1.948;2022-11-15T01:57:34;98254.31;;;8.15;100.00
43364;BME280;40636;52.424;-1.948;2022-11-15T02:00:03;98251.59;;;8.15;100.00
43364;BME280;40636;52.424;-1.948;2022-11-15T02:02:31;98246.41;;;8.19;100.00
43364;BME280;40636;52.424;-1.948;2022-11-15T02:04:59;98243.66;;;8.19;100.00
43364;BME280;40636;52.424;-1.948;2022-11-15T02:07:30;98229.69;;;8.25;100.00
43364;BME280;40636;52.424;-1.948;2022-11-15T02:10:13;98223.41;;;8.30;100.00
43364;BME280;40636;52.424;-1.948;2022-11-15T02:12:40;98218.72;;;8.35;100.00
43364;BME280;40636;52.424;-1.948;2022-11-15T02:15:08;98210.28;;;8.42;100.00
43364;BME280;40636;52.424;-1.948;2022-11-15T02:20:41;98194.13;;;8.51;100.00
43364;BME280;40636;52.424;-1.948;2022-11-15T02:34:06;98166.97;;;8.64;100.00
43364;BME280;40636;52.424;-1.948;2022-11-15T02:36:49;98158.22;;;8.68;100.00
43364;BME280;40636;52.424;-1.948;2022-11-15T02:39:41;98156.00;;;8.70;100.00
43364;BME280;40636;52.424;-1.948;2022-11-15T02:42:20;98145.38;;;8.68;100.00
43364;BME280;40636;52.424;-1.948;2022-11-15T02:45:08;98150.00;;;8.73;100.00
43364;BME280;40636;52.424;-1.948;2022-11-15T02:47:43;98139.06;;;8.73;100.00
43364;BME280;40636;52.424;-1.948;2022-11-15T02:50:12;98139.06;;;8.73;100.00
43364;BME280;40636;52.424;-1.948;2022-11-15T02:52:45;98140.13;;;8.72;100.00
43364;BME280;40636;52.424;-1.948;2022-11-15T02:55:31;98127.81;;;8.74;100.00
43364;BME280;40636;52.424;-1.948;2022-11-15T03:00:34;98126.44;;;8.72;100.00
43364;BME280;40636;52.424;-1.948;2022-11-15T03:03:12;98124.53;;;8.77;100.00
43364;BME280;40636;52.424;-1.948;2022-11-15T03:05:54;98111.13;;;8.76;100.00
43364;BME280;40636;52.424;-1.948;2022-11-15T03:08:29;98111.13;;;8.76;100.00
43364;BME280;40636;52.424;-1.948;2022-11-15T03:13:56;98098.81;;;8.78;100.00
43364;BME280;40636;52.424;-1.948;2022-11-15T03:16:29;98098.25;;;8.81;100.00
43364;BME280;40636;52.424;-1.948;2022-11-15T03:20:13;98091.38;;;8.84;100.00
43364;BME280;40636;52.424;-1.948;2022-11-15T03:22:11;98085.59;;;8.85;100.00
43364;BME280;40636;52.424;-1.948;2022-11-15T03:24:39;98085.34;;;8.87;100.00
43364;BME280;40636;52.424;-1.948;2022-11-15T03:27:09;98083.13;;;8.89;100.00
43364;BME280;40636;52.424;-1.948;2022-11-15T03:29:42;98077.66;;;8.89;100.00
43364;BME280;40636;52.424;-1.948;2022-11-15T03:32:24;98059.56;;;8.93;100.00
43364;BME280;40636;52.424;-1.948;2022-11-15T03:34:57;98055.47;;;8.96;100.00
43364;BME280;40636;52.424;-1.948;2022-11-15T03:37:34;98047.53;;;8.94;100.00
43364;BME280;40636;52.424;-1.948;2022-11-15T03:40:04;98041.50;;;8.97;100.00
43364;BME280;40636;52.424;-1.948;2022-11-15T03:45:50;98051.06;;;9.00;100.00
43364;BME280;40636;52.424;-1.948;2022-11-15T03:48:26;98035.44;;;9.00;100.00
43364;BME280;40636;52.424;-1.948;2022-11-15T03:50:54;98038.44;;;8.99;100.00
43364;BME280;40636;52.424;-1.948;2022-11-15T03:53:22;98036.00;;;8.97;100.00
43364;BME280;40636;52.424;-1.948;2022-11-15T03:55:48;98031.34;;;8.98;100.00
43364;BME280;40636;52.424;-1.948;2022-11-15T03:58:15;98034.91;;;8.98;100.00
43364;BME280;40636;52.424;-1.948;2022-11-15T04:00:42;98026.19;;;8.96;100.00
43364;BME280;40636;52.424;-1.948;2022-11-15T04:03:09;98029.19;;;8.95;100.00
43364;BME280;40636;52.424;-1.948;2022-11-15T04:05:36;98020.97;;;8.95;100.00
43364;BME280;40636;52.424;-1.948;2022-11-15T04:08:02;98006.50;;;8.94;100.00
43364;BME280;40636;52.424;-1.948;2022-11-15T04:10:29;98005.41;;;8.95;100.00
43364;BME280;40636;52.424;-1.948;2022-11-15T04:12:56;97998.00;;;8.96;100.00
43364;BME280;40636;52.424;-1.948;2022-11-15T04:15:23;97988.75;;;8.92;100.00
43364;BME280;40636;52.424;-1.948;2022-11-15T04:17:52;97989.56;;;8.92;100.00
43364;BME280;40636;52.424;-1.948;2022-11-15T04:20:22;97982.47;;;8.91;100.00
43364;BME280;40636;52.424;-1.948;2022-11-15T04:23:25;97973.97;;;8.93;100.00
43364;BME280;40636;52.424;-1.948;2022-11-15T04:26:14;97960.22;;;8.98;100.00
43364;BME280;40636;52.424;-1.948;2022-11-15T04:28:42;97966.25;;;8.95;100.00
43364;BME280;40636;52.424;-1.948;2022-11-15T04:31:29;97966.50;;;8.98;100.00
43364;BME280;40636;52.424;-1.948;2022-11-15T04:33:56;97952.56;;;9.00;100.00
43364;BME280;40636;52.424;-1.948;2022-11-15T04:36:23;97956.94;;;9.01;100.00
43364;BME280;40636;52.424;-1.948;2022-11-15T04:39:08;97955.31;;;9.00;100.00
43364;BME280;40636;52.424;-1.948;2022-11-15T04:41:35;97947.03;;;9.05;100.00
43364;BME280;40636;52.424;-1.948;2022-11-15T04:44:02;97948.16;;;9.04;100.00
43364;BME280;40636;52.424;-1.948;2022-11-15T04:46:28;97943.50;;;9.04;100.00
43364;BME280;40636;52.424;-1.948;2022-11-15T04:48:55;97939.94;;;9.04;100.00
43364;BME280;40636;52.424;-1.948;2022-11-15T04:51:24;97924.84;;;9.06;100.00
43364;BME280;40636;52.424;-1.948;2022-11-15T04:53:51;97918.56;;;9.06;100.00
43364;BME280;40636;52.424;-1.948;2022-11-15T04:56:18;97904.59;;;9.07;100.00
43364;BME280;40636;52.424;-1.948;2022-11-15T04:58:44;97899.06;;;9.12;100.00
43364;BME280;40636;52.424;-1.948;2022-11-15T05:01:14;97893.56;;;9.12;100.00
43364;BME280;40636;52.424;-1.948;2022-11-15T05:03:41;97888.66;;;9.14;100.00
43364;BME280;40636;52.424;-1.948;2022-11-15T05:06:27;97884.78;;;9.15;100.00
43364;BME280;40636;52.424;-1.948;2022-11-15T05:08:54;97887.22;;;9.17;100.00
43364;BME280;40636;52.424;-1.948;2022-11-15T05:11:21;97880.38;;;9.20;100.00
43364;BME280;40636;52.424;-1.948;2022-11-15T05:13:48;97871.66;;;9.18;100.00
43364;BME280;40636;52.424;-1.948;2022-11-15T05:16:15;97857.97;;;9.18;100.00
43364;BME280;40636;52.424;-1.948;2022-11-15T05:18:42;97855.44;;;9.21;100.00
43364;BME280;40636;52.424;-1.948;2022-11-15T05:21:12;97862.84;;;9.21;100.00
43364;BME280;40636;52.424;-1.948;2022-11-15T05:23:40;97858.47;;;9.20;100.00
43364;BME280;40636;52.424;-1.948;2022-11-15T05:26:07;97856.78;;;9.24;100.00
43364;BME280;40636;52.424;-1.948;2022-11-15T05:28:35;97836.22;;;9.26;100.00
43364;BME280;40636;52.424;-1.948;2022-11-15T05:31:04;97840.38;;;9.24;100.00
43364;BME280;40636;52.424;-1.948;2022-11-15T05:33:32;97835.41;;;9.26;100.00
43364;BME280;40636;52.424;-1.948;2022-11-15T05:38:48;97832.09;;;9.29;100.00
43364;BME280;40636;52.424;-1.948;2022-11-15T05:41:19;97834.25;;;9.32;100.00
43364;BME280;40636;52.424;-1.948;2022-11-15T05:43:48;97820.25;;;9.33;100.00
43364;BME280;40636;52.424;-1.948;2022-11-15T05:46:16;97815.59;;;9.34;100.00
43364;BME280;40636;52.424;-1.948;2022-11-15T05:48:46;97824.34;;;9.36;100.00
43364;BME280;40636;52.424;-1.948;2022-11-15T05:51:15;97800.78;;;9.35;100.00
43364;BME280;40636;52.424;-1.948;2022-11-15T05:53:43;97807.91;;;9.36;100.00
43364;BME280;40636;52.424;-1.948;2022-11-15T05:56:11;97798.81;;;9.40;100.00
43364;BME280;40636;52.424;-1.948;2022-11-15T05:58:38;97802.88;;;9.43;100.00
43364;BME280;40636;52.424;-1.948;2022-11-15T06:01:05;97788.88;;;9.45;100.00
43364;BME280;40636;52.424;-1.948;2022-11-15T06:03:32;97798.44;;;9.47;100.00
43364;BME280;40636;52.424;-1.948;2022-11-15T06:05:59;97791.25;;;9.51;100.00
43364;BME280;40636;52.424;-1.948;2022-11-15T06:08:27;97779.28;;;9.47;100.00
43364;BME280;40636;52.424;-1.948;2022-11-15T06:10:53;97791.25;;;9.51;100.00
43364;BME280;40636;52.424;-1.948;2022-11-15T06:13:20;97780.81;;;9.53;100.00
43364;BME280;40636;52.424;-1.948;2022-11-15T06:15:47;97780.22;;;9.56;100.00
43364;BME280;40636;52.424;-1.948;2022-11-15T06:18:14;97770.97;;;9.52;100.00
43364;BME280;40636;52.424;-1.948;2022-11-15T06:20:41;97775.56;;;9.57;100.00
43364;BME280;40636;52.424;-1.948;2022-11-15T06:23:08;97768.69;;;9.59;100.00
43364;BME280;40636;52.424;-1.948;2022-11-15T06:25:35;97779.03;;;9.62;100.00
43364;BME280;40636;52.424;-1.948;2022-11-15T06:28:01;97775.78;;;9.60;100.00
43364;BME280;40636;52.424;-1.948;2022-11-15T06:30:28;97778.44;;;9.65;100.00
43364;BME280;40636;52.424;-1.948;2022-11-15T06:33:00;97770.22;;;9.65;100.00
43364;BME280;40636;52.424;-1.948;2022-11-15T06:35:27;97759.81;;;9.68;100.00
43364;BME280;40636;52.424;-1.948;2022-11-15T06:37:54;97760.31;;;9.70;100.00
43364;BME280;40636;52.424;-1.948;2022-11-15T06:40:21;97752.59;;;9.72;100.00
43364;BME280;40636;52.424;-1.948;2022-11-15T06:42:48;97741.94;;;9.70;100.00
43364;BME280;40636;52.424;-1.948;2022-11-15T06:45:15;97743.88;;;9.70;100.00
43364;BME280;40636;52.424;-1.948;2022-11-15T06:47:46;97740.53;;;9.73;100.00
43364;BME280;40636;52.424;-1.948;2022-11-15T06:50:13;97728.16;;;9.75;100.00
43364;BME280;40636;52.424;-1.948;2022-11-15T06:52:40;97724.59;;;9.75;100.00
43364;BME280;40636;52.424;-1.948;2022-11-15T06:55:07;97734.44;;;9.76;100.00
43364;BME280;40636;52.424;-1.948;2022-11-15T06:57:35;97721.56;;;9.76;100.00
43364;BME280;40636;52.424;-1.948;2022-11-15T07:00:05;97716.31;;;9.80;100.00
43364;BME280;40636;52.424;-1.948;2022-11-15T07:02:32;97702.31;;;9.81;100.00
43364;BME280;40636;52.424;-1.948;2022-11-15T07:04:59;97706.38;;;9.84;100.00
43364;BME280;40636;52.424;-1.948;2022-11-15T07:07:25;97705.25;;;9.85;100.00
43364;BME280;40636;52.424;-1.948;2022-11-15T07:09:52;97698.38;;;9.87;100.00
43364;BME280;40636;52.424;-1.948;2022-11-15T07:12:19;97701.13;;;9.87;100.00
43364;BME280;40636;52.424;-1.948;2022-11-15T07:14:46;97692.09;;;9.87;100.00
43364;BME280;40636;52.424;-1.948;2022-11-15T07:17:12;97689.84;;;9.89;100.00
43364;BME280;40636;52.424;-1.948;2022-11-15T07:19:40;97693.69;;;9.88;100.00
43364;BME280;40636;52.424;-1.948;2022-11-15T07:22:06;97694.50;;;9.88;100.00
43364;BME280;40636;52.424;-1.948;2022-11-15T07:24:33;97690.97;;;9.88;100.00
43364;BME280;40636;52.424;-1.948;2022-11-15T07:27:00;97688.72;;;9.90;100.00
43364;BME280;40636;52.424;-1.948;2022-11-15T07:29:26;97678.59;;;9.90;100.00
43364;BME280;40636;52.424;-1.948;2022-11-15T07:31:54;97675.56;;;9.92;100.00
43364;BME280;40636;52.424;-1.948;2022-11-15T07:34:20;97670.38;;;9.90;100.00
43364;BME280;40636;52.424;-1.948;2022-11-15T07:36:47;97668.94;;;9.93;100.00
43364;BME280;40636;52.424;-1.948;2022-11-15T07:39:14;97672.22;;;9.95;100.00
43364;BME280;40636;52.424;-1.948;2022-11-15T07:41:41;97662.34;;;9.94;100.00
43364;BME280;40636;52.424;-1.948;2022-11-15T07:44:07;97651.59;;;9.98;100.00
43364;BME280;40636;52.424;-1.948;2022-11-15T07:46:35;97644.72;;;10.00;100.00
43364;BME280;40636;52.424;-1.948;2022-11-15T07:49:02;97649.41;;;10.00;100.00
43364;BME280;40636;52.424;-1.948;2022-11-15T07:51:29;97652.31;;;10.03;100.00
43364;BME280;40636;52.424;-1.948;2022-11-15T07:53:56;97642.19;;;10.04;100.00
43364;BME280;40636;52.424;-1.948;2022-11-15T07:56:22;97640.25;;;10.04;100.00
43364;BME280;40636;52.424;-1.948;2022-11-15T07:58:49;97636.09;;;10.07;100.00
43364;BME280;40636;52.424;-1.948;2022-11-15T08:01:16;97629.00;;;10.06;100.00
43364;BME280;40636;52.424;-1.948;2022-11-15T08:03:43;97626.47;;;10.09;100.00
43364;BME280;40636;52.424;-1.948;2022-11-15T08:06:10;97620.16;;;10.09;100.00
43364;BME280;40636;52.424;-1.948;2022-11-15T08:08:37;97618.22;;;10.09;100.00
43364;BME280;40636;52.424;-1.948;2022-11-15T08:11:03;97605.03;;;10.11;100.00
43364;BME280;40636;52.424;-1.948;2022-11-15T08:13:30;97602.81;;;10.13;100.00
43364;BME280;40636;52.424;-1.948;2022-11-15T08:15:59;97594.75;;;10.17;100.00
43364;BME280;40636;52.424;-1.948;2022-11-15T08:18:25;97591.22;;;10.16;100.00
43364;BME280;40636;52.424;-1.948;2022-11-15T08:21:08;97596.91;;;10.20;100.00
43364;BME280;40636;52.424;-1.948;2022-11-15T08:23:44;97584.31;;;10.19;100.00
43364;BME280;40636;52.424;-1.948;2022-11-15T08:26:10;97575.78;;;10.21;100.00
43364;BME280;40636;52.424;-1.948;2022-11-15T08:28:38;97565.34;;;10.23;100.00
43364;BME280;40636;52.424;-1.948;2022-11-15T08:31:14;97559.56;;;10.24;100.00
43364;BME280;40636;52.424;-1.948;2022-11-15T08:33:43;97561.19;;;10.25;100.00
43364;BME280;40636;52.424;-1.948;2022-11-15T08:36:13;97553.78;;;10.26;100.00
43364;BME280;40636;52.424;-1.948;2022-11-15T08:38:41;97555.91;;;10.29;100.00
43364;BME280;40636;52.424;-1.948;2022-11-15T08:41:18;97547.69;;;10.29;100.00
43364;BME280;40636;52.424;-1.948;2022-11-15T08:43:49;97530.94;;;10.30;100.00
43364;BME280;40636;52.424;-1.948;2022-11-15T08:46:16;97529.84;;;10.31;100.00
43364;BME280;40636;52.424;-1.948;2022-11-15T08:48:44;97536.63;;;10.34;100.00
43364;BME280;40636;52.424;-1.948;2022-11-15T08:51:12;97526.16;;;10.36;100.00
43364;BME280;40636;52.424;-1.948;2022-11-15T08:53:39;97520.03;;;10.39;100.00
43364;BME280;40636;52.424;-1.948;2022-11-15T08:56:10;97523.59;;;10.39;100.00
43364;BME280;40636;52.424;-1.948;2022-11-15T08:58:38;97515.38;;;10.39;100.00
43364;BME280;40636;52.424;-1.948;2022-11-15T09:01:05;97519.44;;;10.42;100.00
43364;BME280;40636;52.424;-1.948;2022-11-15T09:03:32;97504.31;;;10.45;100.00
43364;BME280;40636;52.424;-1.948;2022-11-15T09:06:00;97502.06;;;10.47;100.00
43364;BME280;40636;52.424;-1.948;2022-11-15T09:08:31;97509.16;;;10.48;100.00
43364;BME280;40636;52.424;-1.948;2022-11-15T09:11:13;97495.16;;;10.49;100.00
43364;BME280;40636;52.424;-1.948;2022-11-15T09:13:41;97498.38;;;10.51;100.00
43364;BME280;40636;52.424;-1.948;2022-11-15T09:16:08;97489.03;;;10.52;100.00
43364;BME280;40636;52.424;-1.948;2022-11-15T09:18:35;97504.88;;;10.55;100.00
43364;BME280;40636;52.424;-1.948;2022-11-15T09:21:02;97496.31;;;10.57;100.00
43364;BME280;40636;52.424;-1.948;2022-11-15T09:23:30;97482.94;;;10.55;100.00
43364;BME280;40636;52.424;-1.948;2022-11-15T09:26:01;97489.41;;;10.59;100.00
43364;BME280;40636;52.424;-1.948;2022-11-15T09:28:30;97485.56;;;10.60;100.00
43364;BME280;40636;52.424;-1.948;2022-11-15T09:31:00;97477.66;;;10.59;100.00
43364;BME280;40636;52.424;-1.948;2022-11-15T09:33:28;97471.50;;;10.62;100.00
43364;BME280;40636;52.424;-1.948;2022-11-15T09:36:14;97460.53;;;10.62;100.00
43364;BME280;40636;52.424;-1.948;2022-11-15T09:38:40;97466.22;;;10.65;100.00
43364;BME280;40636;52.424;-1.948;2022-11-15T09:49:41;97461.53;;;10.66;100.00
43364;BME280;40636;52.424;-1.948;2022-11-15T09:52:10;97445.91;;;10.66;100.00
43364;BME280;40636;52.424;-1.948;2022-11-15T09:54:39;97447.22;;;10.69;100.00
43364;BME280;40636;52.424;-1.948;2022-11-15T09:57:54;97440.94;;;10.69;100.00
43364;BME280;40636;52.424;-1.948;2022-11-15T10:00:47;97443.03;;;10.72;100.00
43364;BME280;40636;52.424;-1.948;2022-11-15T10:03:29;97444.00;;;10.76;100.00
43364;BME280;40636;52.424;-1.948;2022-11-15T10:06:01;97442.28;;;10.80;100.00
43364;BME280;40636;52.424;-1.948;2022-11-15T10:11:11;97432.81;;;10.86;100.00
43364;BME280;40636;52.424;-1.948;2022-11-15T10:14:05;97428.28;;;10.90;100.00
43364;BME280;40636;52.424;-1.948;2022-11-15T10:24:37;97423.69;;;10.99;100.00
43364;BME280;40636;52.424;-1.948;2022-11-15T10:27:16;97427.22;;;11.00;100.00
43364;BME280;40636;52.424;-1.948;2022-11-15T10:29:48;97407.22;;;10.99;100.00
43364;BME280;40636;52.424;-1.948;2022-11-15T10:32:18;97405.91;;;10.97;100.00
43364;BME280;40636;52.424;-1.948;2022-11-15T10:34:45;97410.56;;;10.96;100.00
43364;BME280;40636;52.424;-1.948;2022-11-15T10:37:12;97404.28;;;10.96;100.00
43364;BME280;40636;52.424;-1.948;2022-11-15T10:39:40;97394.59;;;10.98;100.00
43364;BME280;40636;52.424;-1.948;2022-11-15T10:42:27;97391.22;;;11.01;100.00
43364;BME280;40636;52.424;-1.948;2022-11-15T10:44:54;97382.53;;;10.99;100.00
43364;BME280;40636;52.424;-1.948;2022-11-15T10:47:30;97382.00;;;10.97;100.00
43364;BME280;40636;52.424;-1.948;2022-11-15T10:50:11;97385.75;;;11.01;100.00
43364;BME280;40636;52.424;-1.948;2022-11-15T10:52:52;97372.03;;;11.01;100.00
43364;BME280;40636;52.424;-1.948;2022-11-15T10:55:21;97369.75;;;11.03;100.00
43364;BME280;40636;52.424;-1.948;2022-11-15T10:57:52;97371.41;;;11.04;100.00
43364;BME280;40636;52.424;-1.948;2022-11-15T11:05:32;97358.16;;;11.06;100.00
43364;BME280;40636;52.424;-1.948;2022-11-15T11:10:52;97336.72;;;11.08;100.00
43364;BME280;40636;52.424;-1.948;2022-11-15T11:13:28;97342.19;;;11.08;100.00
43364;BME280;40636;52.424;-1.948;2022-11-15T11:18:35;97347.84;;;11.12;100.00
43364;BME280;40636;52.424;-1.948;2022-11-15T11:21:12;97337.34;;;11.14;100.00
43364;BME280;40636;52.424;-1.948;2022-11-15T11:23:54;97333.81;;;11.13;100.00
43364;BME280;40636;52.424;-1.948;2022-11-15T11:26:57;97335.56;;;11.09;100.00
43364;BME280;40636;52.424;-1.948;2022-11-15T11:30:05;97326.81;;;11.07;100.00
43364;BME280;40636;52.424;-1.948;2022-11-15T11:38:15;97331.53;;;11.15;100.00
43364;BME280;40636;52.424;-1.948;2022-11-15T11:49:19;97305.44;;;11.27;100.00
43364;BME280;40636;52.424;-1.948;2022-11-15T11:51:56;97305.44;;;11.27;100.00
43364;BME280;40636;52.424;-1.948;2022-11-15T11:54:44;97311.25;;;11.34;100.00
43364;BME280;40636;52.424;-1.948;2022-11-15T11:57:29;97316.72;;;11.34;100.00
43364;BME280;40636;52.424;-1.948;2022-11-15T12:00:21;97318.34;;;11.35;100.00
43364;BME280;40636;52.424;-1.948;2022-11-15T12:03:11;97313.97;;;11.34;100.00
43364;BME280;40636;52.424;-1.948;2022-11-15T12:05:50;97308.50;;;11.34;100.00
43364;BME280;40636;52.424;-1.948;2022-11-15T12:08:22;97304.63;;;11.35;100.00
43364;BME280;40636;52.424;-1.948;2022-11-15T12:13:35;97296.38;;;11.35;100.00
43364;BME280;40636;52.424;-1.948;2022-11-15T12:16:22;97284.28;;;11.36;100.00
43364;BME280;40636;52.424;-1.948;2022-11-15T12:18:53;97265.06;;;11.36;100.00
43364;BME280;40636;52.424;-1.948;2022-11-15T12:21:45;97279.09;;;11.34;100.00
43364;BME280;40636;52.424;-1.948;2022-11-15T12:27:17;97306.72;;;11.29;100.00
43364;BME280;40636;52.424;-1.948;2022-11-15T12:29:55;97317.50;;;11.26;100.00
43364;BME280;40636;52.424;-1.948;2022-11-15T12:32:31;97305.56;;;11.22;100.00
43364;BME280;40636;52.424;-1.948;2022-11-15T12:35:02;97306.88;;;11.24;100.00
43364;BME280;40636;52.424;-1.948;2022-11-15T12:42:57;97292.84;;;11.43;100.00
43364;BME280;40636;52.424;-1.948;2022-11-15T12:45:26;97298.69;;;11.50;100.00
43364;BME280;40636;52.424;-1.948;2022-11-15T12:47:53;97291.72;;;11.61;100.00
43364;BME280;40636;52.424;-1.948;2022-11-15T12:53:43;97288.66;;;11.72;100.00
43364;BME280;40636;52.424;-1.948;2022-11-15T12:58:58;97284.00;;;11.72;100.00
43364;BME280;40636;52.424;-1.948;2022-11-15T13:06:55;97295.63;;;11.69;100.00
43364;BME280;40636;52.424;-1.948;2022-11-15T13:12:25;97288.19;;;11.69;100.00
43364;BME280;40636;52.424;-1.948;2022-11-15T13:17:51;97305.97;;;11.98;100.00
43364;BME280;40636;52.424;-1.948;2022-11-15T13:20:25;97308.25;;;12.05;100.00
43364;BME280;40636;52.424;-1.948;2022-11-15T13:23:12;97300.81;;;11.97;100.00
43364;BME280;40636;52.424;-1.948;2022-11-15T13:31:03;97310.16;;;11.61;100.00
43364;BME280;40636;52.424;-1.948;2022-11-15T13:33:39;97302.88;;;11.56;100.00
43364;BME280;40636;52.424;-1.948;2022-11-15T13:36:12;97311.44;;;11.55;100.00
43364;BME280;40636;52.424;-1.948;2022-11-15T13:38:41;97316.75;;;11.51;100.00
43364;BME280;40636;52.424;-1.948;2022-11-15T13:41:28;97316.91;;;11.46;100.00
43364;BME280;40636;52.424;-1.948;2022-11-15T13:43:56;97321.09;;;11.43;100.00
43364;BME280;40636;52.424;-1.948;2022-11-15T13:50:41;97332.09;;;11.52;100.00
43364;BME280;40636;52.424;-1.948;2022-11-15T13:53:10;97333.25;;;11.51;100.00
43364;BME280;40636;52.424;-1.948;2022-11-15T13:55:37;97326.56;;;11.35;100.00
43364;BME280;40636;52.424;-1.948;2022-11-15T13:58:09;97338.38;;;11.27;100.00
43364;BME280;40636;52.424;-1.948;2022-11-15T14:00:45;97339.16;;;11.18;100.00
43364;BME280;40636;52.424;-1.948;2022-11-15T14:03:19;97346.22;;;11.11;100.00
43364;BME280;40636;52.424;-1.948;2022-11-15T14:06:14;97355.06;;;11.08;100.00
43364;BME280;40636;52.424;-1.948;2022-11-15T14:11:54;97358.81;;;11.12;100.00
43364;BME280;40636;52.424;-1.948;2022-11-15T14:14:23;97357.53;;;11.09;100.00
43364;BME280;40636;52.424;-1.948;2022-11-15T14:20:29;97354.41;;;11.02;100.00
43364;BME280;40636;52.424;-1.948;2022-11-15T14:25:55;97364.31;;;11.12;100.00
43364;BME280;40636;52.424;-1.948;2022-11-15T14:30:58;97360.13;;;11.14;100.00
43364;BME280;40636;52.424;-1.948;2022-11-15T14:33:34;97359.47;;;11.09;100.00
43364;BME280;40636;52.424;-1.948;2022-11-15T14:38:56;97362.19;;;11.00;100.00
43364;BME280;40636;52.424;-1.948;2022-11-15T14:41:35;97368.44;;;10.92;100.00
43364;BME280;40636;52.424;-1.948;2022-11-15T14:44:09;97367.91;;;10.90;100.00
43364;BME280;40636;52.424;-1.948;2022-11-15T14:46:36;97364.22;;;10.86;100.00
43364;BME280;40636;52.424;-1.948;2022-11-15T14:49:06;97355.66;;;10.87;100.00
43364;BME280;40636;52.424;-1.948;2022-11-15T14:51:34;97348.84;;;10.85;100.00
43364;BME280;40636;52.424;-1.948;2022-11-15T14:54:01;97353.34;;;10.81;100.00
43364;BME280;40636;52.424;-1.948;2022-11-15T14:56:27;97346.06;;;10.68;100.00
43364;BME280;40636;52.424;-1.948;2022-11-15T14:58:55;97352.50;;;10.63;100.00
43364;BME280;40636;52.424;-1.948;2022-11-15T15:01:26;97350.13;;;10.48;100.00
43364;BME280;40636;52.424;-1.948;2022-11-15T15:03:55;97355.56;;;10.39;100.00
43364;BME280;40636;52.424;-1.948;2022-11-15T15:06:23;97359.16;;;10.26;100.00
43364;BME280;40636;52.424;-1.948;2022-11-15T15:08:51;97354.91;;;10.20;100.00